createdAt,value
2018-08-25T00:01:02.969Z,2.70
2018-08-25T00:03:35.726Z,2.00
2018-08-25T00:06:08.159Z,2.40
2018-08-25T00:08:40.554Z,2.33
2018-08-25T00:11:13.126Z,2.03
2018-08-25T00:13:45.697Z,2.30
2018-08-25T00:16:18.479Z,1.90
2018-08-25T00:18:50.905Z,2.57
2018-08-25T00:21:23.331Z,2.43
2018-08-25T00:23:55.689Z,1.80
2018-08-25T00:26:28.593Z,2.30
2018-08-25T00:29:00.984Z,2.70
2018-08-25T00:31:34.305Z,2.53
2018-08-25T00:34:06.696Z,2.20
2018-08-25T00:36:39.172Z,2.80
2018-08-25T00:39:11.745Z,2.70
2018-08-25T00:41:44.187Z,2.30
2018-08-25T00:44:16.609Z,2.07
2018-08-25T00:46:49.069Z,2.30
2018-08-25T00:49:21.605Z,2.07
2018-08-25T00:51:54.054Z,2.30
2018-08-25T00:54:26.511Z,2.10
2018-08-25T00:56:58.985Z,2.40
2018-08-25T00:59:31.551Z,2.20
2018-08-25T01:02:04.144Z,2.70
2018-08-25T01:04:36.955Z,2.13
2018-08-25T01:07:09.654Z,2.10
2018-08-25T01:09:42.182Z,2.77
2018-08-25T01:12:15.020Z,2.50
2018-08-25T01:14:47.621Z,2.47
2018-08-25T01:17:20.126Z,2.53
2018-08-25T01:19:52.615Z,2.30
2018-08-25T01:22:25.014Z,2.30
2018-08-25T01:24:57.456Z,2.20
2018-08-25T01:27:30.031Z,2.50
2018-08-25T01:30:02.458Z,2.67
2018-08-25T01:32:35.024Z,2.83
2018-08-25T01:35:07.473Z,2.33
2018-08-25T01:37:40.210Z,2.40
2018-08-25T01:40:12.634Z,2.50
2018-08-25T01:42:45.040Z,2.33
2018-08-25T01:45:17.441Z,2.73
2018-08-25T01:47:50.615Z,2.77
2018-08-25T01:50:23.079Z,2.70
2018-08-25T01:52:55.833Z,2.30
2018-08-25T01:55:28.332Z,2.83
2018-08-25T01:58:00.781Z,2.67
2018-08-25T02:00:33.567Z,2.63
2018-08-25T02:03:05.956Z,3.03
2018-08-25T02:05:38.373Z,2.23
2018-08-25T02:08:10.870Z,2.40
2018-08-25T02:10:43.465Z,2.50
2018-08-25T02:13:15.865Z,2.43
2018-08-25T02:15:48.569Z,2.50
2018-08-25T02:18:21.009Z,2.37
2018-08-25T02:20:53.452Z,2.70
2018-08-25T02:23:25.824Z,2.20
2018-08-25T02:25:58.222Z,2.40
2018-08-25T02:28:30.667Z,2.63
2018-08-25T02:31:03.066Z,2.63
2018-08-25T02:33:35.501Z,2.40
2018-08-25T02:36:07.917Z,2.70
2018-08-25T02:38:40.541Z,2.17
2018-08-25T02:41:12.889Z,2.50
2018-08-25T02:43:45.298Z,1.87
2018-08-25T02:46:17.686Z,2.23
2018-08-25T02:48:50.135Z,2.67
2018-08-25T02:51:22.821Z,2.50
2018-08-25T02:53:55.265Z,2.57
2018-08-25T02:56:27.670Z,2.50
2018-08-25T02:59:00.075Z,2.27
2018-08-25T03:01:32.480Z,2.60
2018-08-25T03:04:05.219Z,2.50
2018-08-25T03:06:37.674Z,2.83
2018-08-25T03:09:11.272Z,2.20
2018-08-25T03:11:43.699Z,2.47
2018-08-25T03:14:16.165Z,3.03
2018-08-25T03:16:48.553Z,2.07
2018-08-25T03:19:20.969Z,2.53
2018-08-25T03:21:53.624Z,2.50
2018-08-25T03:24:26.051Z,2.73
2018-08-25T03:26:58.496Z,2.60
2018-08-25T03:29:30.949Z,2.37
2018-08-25T03:32:03.313Z,2.60
2018-08-25T03:34:36.017Z,2.43
2018-08-25T03:37:08.687Z,2.40
2018-08-25T03:39:41.081Z,2.33
2018-08-25T03:42:13.741Z,2.63
2018-08-25T03:44:46.146Z,2.60
2018-08-25T03:47:18.537Z,3.20
2018-08-25T03:49:51.088Z,2.80
2018-08-25T03:52:23.530Z,2.67
2018-08-25T03:54:55.894Z,2.80
2018-08-25T03:57:28.569Z,2.73
2018-08-25T04:00:00.935Z,3.47
2018-08-25T04:02:33.345Z,2.90
2018-08-25T04:05:05.804Z,2.87
2018-08-25T04:07:38.194Z,2.50
2018-08-25T04:10:10.597Z,2.27
2018-08-25T04:12:42.997Z,2.57
2018-08-25T04:15:15.650Z,2.47
2018-08-25T04:17:48.161Z,2.77
2018-08-25T04:20:20.678Z,2.67
2018-08-25T04:22:53.102Z,2.80
2018-08-25T04:25:25.618Z,2.50
2018-08-25T04:27:58.018Z,3.37
2018-08-25T04:30:30.578Z,2.77
2018-08-25T04:33:03.039Z,2.93
2018-08-25T04:35:35.414Z,2.70
2018-08-25T04:38:07.817Z,3.30
2018-08-25T04:40:40.183Z,3.00
2018-08-25T04:43:12.575Z,3.00
2018-08-25T04:45:44.914Z,3.40
2018-08-25T04:48:17.308Z,3.00
2018-08-25T04:50:49.794Z,2.90
2018-08-25T04:53:22.288Z,2.80
2018-08-25T04:55:54.737Z,3.53
2018-08-25T04:58:27.266Z,2.83
2018-08-25T05:00:59.682Z,2.60
2018-08-25T05:03:32.038Z,3.10
2018-08-25T05:06:04.637Z,3.60
2018-08-25T05:08:37.031Z,2.87
2018-08-25T05:11:09.831Z,2.87
2018-08-25T05:13:42.213Z,2.93
2018-08-25T05:16:14.613Z,3.17
2018-08-25T05:18:47.003Z,3.67
2018-08-25T05:21:19.626Z,3.20
2018-08-25T05:23:52.197Z,3.37
2018-08-25T05:26:24.847Z,3.13
2018-08-25T05:28:57.633Z,3.30
2018-08-25T05:31:30.282Z,4.20
2018-08-25T05:34:02.755Z,3.20
2018-08-25T05:36:35.138Z,4.00
2018-08-25T05:39:09.443Z,3.37
2018-08-25T05:41:41.907Z,3.50
2018-08-25T05:44:14.633Z,3.80
2018-08-25T05:46:47.064Z,3.50
2018-08-25T05:49:19.500Z,4.13
2018-08-25T05:51:52.052Z,3.33
2018-08-25T05:54:24.491Z,4.37
2018-08-25T05:56:57.210Z,4.20
2018-08-25T05:59:29.795Z,4.23
2018-08-25T06:02:02.353Z,4.10
2018-08-25T06:04:34.739Z,4.20
2018-08-25T06:07:07.395Z,4.50
2018-08-25T06:09:40.386Z,4.10
2018-08-25T06:12:13.059Z,5.30
2018-08-25T06:14:45.523Z,4.77
2018-08-25T06:17:17.994Z,4.97
2018-08-25T06:19:51.072Z,4.90
2018-08-25T06:22:23.561Z,5.03
2018-08-25T06:24:56.495Z,5.33
2018-08-25T06:27:29.043Z,5.07
2018-08-25T06:30:01.640Z,4.80
2018-08-25T06:32:34.503Z,5.53
2018-08-25T06:35:08.484Z,5.50
2018-08-25T06:37:41.257Z,5.50
2018-08-25T06:40:14.258Z,5.20
2018-08-25T06:42:46.864Z,4.53
2018-08-25T06:45:19.639Z,5.50
2018-08-25T06:47:52.192Z,5.40
2018-08-25T06:50:24.787Z,5.83
2018-08-25T06:52:57.360Z,6.80
2018-08-25T06:55:30.131Z,6.70
2018-08-25T06:58:03.222Z,6.37
2018-08-25T07:00:36.068Z,7.47
2018-08-25T07:03:08.915Z,7.33
2018-08-25T07:05:41.774Z,7.43
2018-08-25T07:08:14.245Z,7.73
2018-08-25T07:10:46.751Z,8.40
2018-08-25T07:13:19.466Z,6.30
2018-08-25T07:15:52.232Z,7.30
2018-08-25T07:18:25.051Z,6.00
2018-08-25T07:20:57.468Z,7.80
2018-08-25T07:23:29.843Z,6.93
2018-08-25T07:26:02.372Z,6.40
2018-08-25T07:28:35.054Z,8.10
2018-08-25T07:31:08.026Z,7.93
2018-08-25T07:33:41.756Z,9.80
2018-08-25T07:36:15.183Z,10.00
2018-08-25T07:38:47.897Z,10.73
2018-08-25T07:41:21.018Z,10.33
2018-08-25T07:43:53.658Z,9.83
2018-08-25T07:46:26.112Z,10.20
2018-08-25T07:48:58.880Z,10.97
2018-08-25T07:51:31.658Z,10.47
2018-08-25T07:54:04.244Z,10.10
2018-08-25T07:56:36.980Z,10.23
2018-08-25T07:59:09.498Z,10.57
2018-08-25T08:01:41.856Z,9.90
2018-08-25T08:04:14.260Z,9.50
2018-08-25T08:06:46.738Z,10.90
2018-08-25T08:09:19.229Z,11.70
2018-08-25T08:11:51.739Z,10.70
2018-08-25T08:14:24.316Z,10.50
2018-08-25T08:16:56.770Z,7.93
2018-08-25T08:19:29.225Z,8.13
2018-08-25T08:22:01.733Z,9.77
2018-08-25T08:24:34.834Z,9.63
2018-08-25T08:27:07.511Z,8.47
2018-08-25T08:29:40.154Z,9.70
2018-08-25T08:32:13.013Z,12.17
2018-08-25T08:34:45.674Z,12.83
2018-08-25T08:37:18.207Z,7.27
2018-08-25T08:39:50.940Z,8.43
2018-08-25T08:42:23.467Z,9.23
2018-08-25T08:44:56.731Z,10.27
2018-08-25T08:47:29.172Z,9.83
2018-08-25T08:50:01.834Z,9.83
2018-08-25T08:52:34.202Z,9.67
2018-08-25T08:55:07.014Z,9.33
2018-08-25T08:57:39.438Z,8.50
2018-08-25T09:00:12.359Z,9.83
2018-08-25T09:02:45.213Z,9.67
2018-08-25T09:05:18.768Z,9.57
2018-08-25T09:07:51.254Z,11.03
2018-08-25T09:10:23.882Z,12.13
2018-08-25T09:12:56.509Z,10.60
2018-08-25T09:15:29.232Z,13.03
2018-08-25T09:18:02.133Z,13.40
2018-08-25T09:20:34.572Z,13.23
2018-08-25T09:23:07.216Z,12.73
2018-08-25T09:25:39.678Z,11.67
2018-08-25T09:28:12.370Z,11.20
2018-08-25T09:30:44.994Z,11.13
2018-08-25T09:33:17.904Z,10.83
2018-08-25T09:35:50.904Z,10.33
2018-08-25T09:38:23.598Z,11.27
2018-08-25T09:40:56.607Z,10.30
2018-08-25T09:43:29.414Z,11.50
2018-08-25T09:46:02.204Z,11.40
2018-08-25T09:48:34.894Z,10.30
2018-08-25T09:51:07.772Z,11.43
2018-08-25T09:53:40.662Z,11.50
2018-08-25T09:56:13.499Z,10.53
2018-08-25T09:58:46.277Z,11.63
2018-08-25T10:01:24.359Z,10.23
2018-08-25T10:03:57.033Z,9.20
2018-08-25T10:06:29.786Z,9.90
2018-08-25T10:09:02.626Z,9.40
2018-08-25T10:11:35.447Z,8.87
2018-08-25T10:14:08.191Z,8.37
2018-08-25T10:16:41.163Z,7.83
2018-08-25T10:19:13.796Z,7.70
2018-08-25T10:21:46.303Z,7.70
2018-08-25T10:24:18.771Z,7.70
2018-08-25T10:26:51.538Z,8.30
2018-08-25T10:29:24.162Z,7.60
2018-08-25T10:31:57.137Z,7.57
2018-08-25T10:34:29.558Z,7.63
2018-08-25T10:37:02.634Z,7.13
2018-08-25T10:39:35.292Z,6.87
2018-08-25T10:42:08.135Z,6.47
2018-08-25T10:44:40.670Z,6.10
2018-08-25T10:47:13.601Z,7.03
2018-08-25T10:49:46.310Z,7.07
2018-08-25T10:52:18.819Z,5.50
2018-08-25T10:54:51.652Z,5.40
2018-08-25T10:57:24.472Z,5.57
2018-08-25T10:59:57.470Z,5.87
2018-08-25T11:02:30.148Z,4.73
2018-08-25T11:05:02.935Z,3.83
2018-08-25T11:07:35.538Z,4.90
2018-08-25T11:10:08.208Z,4.77
2018-08-25T11:12:41.275Z,4.60
2018-08-25T11:15:13.882Z,3.90
2018-08-25T11:17:46.359Z,3.67
2018-08-25T11:20:18.972Z,4.20
2018-08-25T11:22:51.578Z,3.70
2018-08-25T11:25:24.194Z,3.60
2018-08-25T11:27:56.643Z,3.60
2018-08-25T11:30:29.098Z,3.70
2018-08-25T11:33:01.643Z,2.80
2018-08-25T11:35:34.038Z,3.33
2018-08-25T11:38:06.669Z,2.90
2018-08-25T11:40:39.433Z,3.57
2018-08-25T11:43:11.872Z,3.07
2018-08-25T11:45:44.458Z,3.10
2018-08-25T11:48:17.628Z,3.30
2018-08-25T11:50:50.726Z,3.10
2018-08-25T11:53:23.796Z,2.80
2018-08-25T11:55:56.347Z,2.93
2018-08-25T11:58:29.284Z,2.63
2018-08-25T12:01:01.970Z,3.00
2018-08-25T12:03:37.142Z,2.90
2018-08-25T12:06:09.956Z,2.93
2018-08-25T12:08:43.010Z,2.93
2018-08-25T12:11:16.140Z,3.70
2018-08-25T12:13:49.298Z,3.57
2018-08-25T12:16:22.179Z,3.10
2018-08-25T12:18:54.823Z,3.17
2018-08-25T12:21:28.183Z,4.03
2018-08-25T12:24:01.945Z,4.63
2018-08-25T12:26:34.764Z,6.23
2018-08-25T12:29:07.425Z,5.90
2018-08-25T12:31:39.879Z,5.53
2018-08-25T12:34:12.305Z,3.67
2018-08-25T12:36:44.733Z,3.10
2018-08-25T12:39:17.997Z,2.20
2018-08-25T12:41:50.649Z,2.43
2018-08-25T12:44:24.055Z,2.60
2018-08-25T12:46:56.643Z,1.90
2018-08-25T12:49:29.210Z,3.00
2018-08-25T12:52:01.774Z,2.70
2018-08-25T12:54:36.872Z,1.97
2018-08-25T12:57:09.419Z,2.37
2018-08-25T12:59:42.142Z,2.37
2018-08-25T13:02:14.807Z,2.10
2018-08-25T13:04:47.686Z,1.63
2018-08-25T13:07:21.597Z,1.97
2018-08-25T13:09:54.219Z,1.90
2018-08-25T13:12:26.710Z,2.30
2018-08-25T13:15:00.206Z,1.80
2018-08-25T13:17:32.820Z,3.07
2018-08-25T13:20:05.796Z,2.70
2018-08-25T13:22:38.583Z,2.30
2018-08-25T13:25:11.361Z,2.10
2018-08-25T13:27:43.930Z,2.20
2018-08-25T13:30:23.657Z,2.23
2018-08-25T13:32:56.758Z,2.30
2018-08-25T13:35:29.594Z,2.10
2018-08-25T13:38:02.212Z,2.23
2018-08-25T13:40:35.315Z,2.37
2018-08-25T13:43:09.347Z,2.17
2018-08-25T13:45:42.034Z,2.20
2018-08-25T13:48:14.956Z,2.60
2018-08-25T13:50:48.215Z,3.13
2018-08-25T13:53:20.931Z,3.17
2018-08-25T13:55:54.603Z,3.40
2018-08-25T13:58:27.684Z,3.87
2018-08-25T14:01:00.513Z,6.03
2018-08-25T14:03:33.299Z,4.10
2018-08-25T14:06:06.642Z,5.53
2018-08-25T14:08:39.762Z,5.40
2018-08-25T14:11:12.449Z,7.00
2018-08-25T14:13:45.660Z,5.70
2018-08-25T14:16:18.607Z,8.93
2018-08-25T14:18:52.079Z,8.90
2018-08-25T14:21:25.518Z,9.33
2018-08-25T14:23:58.082Z,9.50
2018-08-25T14:26:30.902Z,7.00
2018-08-25T14:29:03.870Z,4.07
2018-08-25T14:31:37.052Z,3.77
2018-08-25T14:34:09.527Z,3.63
2018-08-25T14:36:42.439Z,3.70
2018-08-25T14:39:15.923Z,4.17
2018-08-25T14:41:49.178Z,6.03
2018-08-25T14:44:21.636Z,6.23
2018-08-25T14:46:54.412Z,7.13
2018-08-25T14:49:26.918Z,4.10
2018-08-25T14:51:59.804Z,3.10
2018-08-25T14:54:32.735Z,3.63
2018-08-25T14:57:05.333Z,7.80
2018-08-25T14:59:37.772Z,5.53
2018-08-25T15:02:12.178Z,4.00
2018-08-25T15:04:44.581Z,4.13
2018-08-25T15:07:16.988Z,6.07
2018-08-25T15:09:49.538Z,4.70
2018-08-25T15:12:22.006Z,4.60
2018-08-25T15:14:54.713Z,3.57
2018-08-25T15:17:27.834Z,2.23
2018-08-25T15:20:00.271Z,3.40
2018-08-25T15:22:33.060Z,2.50
2018-08-25T15:25:05.560Z,3.73
2018-08-25T15:27:38.444Z,5.63
2018-08-25T15:30:11.253Z,4.00
2018-08-25T15:32:43.847Z,5.37
2018-08-25T15:35:16.274Z,7.33
2018-08-25T15:37:48.720Z,9.97
2018-08-25T15:40:21.108Z,18.30
2018-08-25T15:42:53.654Z,14.17
2018-08-25T15:45:26.113Z,5.37
2018-08-25T15:47:58.922Z,7.33
2018-08-25T15:50:31.312Z,6.30
2018-08-25T15:53:03.795Z,3.83
2018-08-25T15:55:36.312Z,2.03
2018-08-25T15:58:08.698Z,1.87
2018-08-25T16:00:41.245Z,3.83
2018-08-25T16:03:13.804Z,1.50
2018-08-25T16:05:46.273Z,1.40
2018-08-25T16:08:18.799Z,1.33
2018-08-25T16:10:51.422Z,1.17
2018-08-25T16:13:24.334Z,1.27
2018-08-25T16:15:56.922Z,1.40
2018-08-25T16:18:29.871Z,1.37
2018-08-25T16:21:02.848Z,1.13
2018-08-25T16:23:35.569Z,1.33
2018-08-25T16:26:08.180Z,1.20
2018-08-25T16:28:40.766Z,1.40
2018-08-25T16:31:13.426Z,1.80
2018-08-25T16:33:46.112Z,1.33
2018-08-25T16:36:18.957Z,1.30
2018-08-25T16:38:51.778Z,1.20
2018-08-25T16:41:26.655Z,1.33
2018-08-25T16:44:00.128Z,1.30
2018-08-25T16:46:34.913Z,1.40
2018-08-25T16:49:08.175Z,1.70
2018-08-25T16:51:41.171Z,1.43
2018-08-25T16:54:13.801Z,1.60
2018-08-25T16:56:46.569Z,1.60
2018-08-25T16:59:20.565Z,1.70
2018-08-25T17:01:53.235Z,1.60
2018-08-25T17:04:26.214Z,1.67
2018-08-25T17:06:59.390Z,2.23
2018-08-25T17:09:32.273Z,1.50
2018-08-25T17:12:05.332Z,1.70
2018-08-25T17:14:38.260Z,1.73
2018-08-25T17:17:11.310Z,2.20
2018-08-25T17:19:44.518Z,1.90
2018-08-25T17:22:17.994Z,1.80
2018-08-25T17:24:50.857Z,2.10
2018-08-25T17:27:23.580Z,2.90
2018-08-25T17:29:56.212Z,2.40
2018-08-25T17:32:29.519Z,2.13
2018-08-25T17:35:03.131Z,2.17
2018-08-25T17:37:35.860Z,1.90
2018-08-25T17:40:09.179Z,2.00
2018-08-25T17:42:41.841Z,2.10
2018-08-25T17:45:14.732Z,2.30
2018-08-25T17:47:47.253Z,1.80
2018-08-25T17:50:20.055Z,1.90
2018-08-25T17:52:52.955Z,1.83
2018-08-25T17:55:25.935Z,1.40
2018-08-25T17:57:59.446Z,1.60
2018-08-25T18:00:32.039Z,1.90
2018-08-25T18:03:04.852Z,1.90
2018-08-25T18:05:37.794Z,1.70
2018-08-25T18:08:10.749Z,1.97
2018-08-25T18:10:43.302Z,1.47
2018-08-25T18:13:20.780Z,1.80
2018-08-25T18:15:53.540Z,2.13
2018-08-25T18:18:26.644Z,1.43
2018-08-25T18:20:59.143Z,1.67
2018-08-25T18:23:31.874Z,1.67
2018-08-25T18:26:04.485Z,1.83
2018-08-25T18:28:38.137Z,2.07
2018-08-25T18:31:10.597Z,2.20
2018-08-25T18:33:43.022Z,2.00
2018-08-25T18:36:15.418Z,1.90
2018-08-25T18:38:48.499Z,2.20
2018-08-25T18:41:21.090Z,1.83
2018-08-25T18:43:53.628Z,1.80
2018-08-25T18:46:26.203Z,2.40
2018-08-25T18:48:59.050Z,2.00
2018-08-25T18:51:31.716Z,2.20
2018-08-25T18:54:04.389Z,2.57
2018-08-25T18:56:37.288Z,2.10
2018-08-25T18:59:10.480Z,2.30
2018-08-25T19:01:43.516Z,1.90
2018-08-25T19:04:16.544Z,1.87
2018-08-25T19:06:49.473Z,1.80
2018-08-25T19:09:22.606Z,2.27
2018-08-25T19:11:55.593Z,1.90
2018-08-25T19:14:28.469Z,1.90
2018-08-25T19:17:01.192Z,2.37
2018-08-25T19:19:34.636Z,2.60
2018-08-25T19:22:08.830Z,1.83
2018-08-25T19:24:41.544Z,1.63
2018-08-25T19:27:16.947Z,1.93
2018-08-25T19:29:50.820Z,1.70
2018-08-25T19:32:23.505Z,1.73
2018-08-25T19:34:56.583Z,2.23
2018-08-25T19:37:29.151Z,2.07
2018-08-25T19:40:03.216Z,2.13
2018-08-25T19:42:36.095Z,1.80
2018-08-25T19:45:08.875Z,1.97
2018-08-25T19:47:41.795Z,2.17
2018-08-25T19:50:14.484Z,2.27
2018-08-25T19:52:47.813Z,1.77
2018-08-25T19:55:20.598Z,1.87
2018-08-25T19:57:53.245Z,1.60
2018-08-25T20:00:26.009Z,1.60
2018-08-25T20:02:58.461Z,1.37
2018-08-25T20:05:30.993Z,1.40
2018-08-25T20:08:04.403Z,1.70
2018-08-25T20:10:36.855Z,1.77
2018-08-25T20:13:09.439Z,1.53
2018-08-25T20:15:42.278Z,2.13
2018-08-25T20:18:14.776Z,1.70
2018-08-25T20:20:47.681Z,1.60
2018-08-25T20:23:22.416Z,2.00
2018-08-25T20:25:55.117Z,2.13
2018-08-25T20:28:27.931Z,1.70
2018-08-25T20:31:00.489Z,1.83
2018-08-25T20:33:32.941Z,1.97
2018-08-25T20:36:05.799Z,2.07
2018-08-25T20:38:38.242Z,2.00
2018-08-25T20:41:10.929Z,1.77
2018-08-25T20:43:43.660Z,1.83
2018-08-25T20:46:16.181Z,1.50
2018-08-25T20:48:49.452Z,1.80
2018-08-25T20:51:21.954Z,2.73
2018-08-25T20:53:54.622Z,1.77
2018-08-25T20:56:27.192Z,2.33
2018-08-25T20:58:59.872Z,1.60
2018-08-25T21:01:32.531Z,1.70
2018-08-25T21:04:05.356Z,1.70
2018-08-25T21:06:37.991Z,1.53
2018-08-25T21:09:11.730Z,1.53
2018-08-25T21:11:44.361Z,1.70
2018-08-25T21:14:17.766Z,2.47
2018-08-25T21:16:50.373Z,2.30
2018-08-25T21:19:23.286Z,1.90
2018-08-25T21:21:56.265Z,1.87
2018-08-25T21:24:29.055Z,1.50
2018-08-25T21:27:01.646Z,1.50
2018-08-25T21:29:34.769Z,1.40
2018-08-25T21:32:07.417Z,1.43
2018-08-25T21:34:40.502Z,1.40
2018-08-25T21:37:13.742Z,1.50
2018-08-25T21:39:46.938Z,1.43
2018-08-25T21:42:20.168Z,1.70
2018-08-25T21:44:52.842Z,1.47
2018-08-25T21:47:26.627Z,1.17
2018-08-25T21:49:59.428Z,1.73
2018-08-25T21:52:32.091Z,1.50
2018-08-25T21:55:05.008Z,1.67
2018-08-25T21:57:37.674Z,1.47
2018-08-25T22:00:10.350Z,1.40
2018-08-25T22:02:43.215Z,1.83
2018-08-25T22:05:15.880Z,1.70
2018-08-25T22:07:49.432Z,1.43
2018-08-25T22:10:22.611Z,1.87
2018-08-25T22:12:55.301Z,1.43
2018-08-25T22:15:28.235Z,1.53
2018-08-25T22:18:01.137Z,1.40
2018-08-25T22:20:33.835Z,1.43
2018-08-25T22:23:06.979Z,1.43
2018-08-25T22:25:39.910Z,1.60
2018-08-25T22:28:13.275Z,1.17
2018-08-25T22:30:47.181Z,1.40
2018-08-25T22:33:21.748Z,1.60
2018-08-25T22:35:55.134Z,1.80
2018-08-25T22:38:27.500Z,1.77
2018-08-25T22:41:00.055Z,1.30
2018-08-25T22:43:32.785Z,1.53
2018-08-25T22:46:06.751Z,1.50
2018-08-25T22:48:40.046Z,1.87
2018-08-25T22:51:13.014Z,1.83
2018-08-25T22:53:46.858Z,2.30
2018-08-25T22:56:19.338Z,1.47
2018-08-25T22:58:51.752Z,1.90
2018-08-25T23:01:24.184Z,1.60
2018-08-25T23:03:56.843Z,1.53
2018-08-25T23:06:29.297Z,1.60
2018-08-25T23:09:01.775Z,1.50
2018-08-25T23:11:34.289Z,1.60
2018-08-25T23:14:07.088Z,1.47
2018-08-25T23:16:39.498Z,1.33
2018-08-25T23:19:12.622Z,1.43
2018-08-25T23:21:45.074Z,1.57
2018-08-25T23:24:17.483Z,1.60
2018-08-25T23:26:49.931Z,1.50
2018-08-25T23:29:22.400Z,1.30
2018-08-25T23:31:54.890Z,1.40
2018-08-25T23:34:27.314Z,1.60
2018-08-25T23:36:59.795Z,1.40
2018-08-25T23:39:32.173Z,1.40
2018-08-25T23:42:04.641Z,1.63
2018-08-25T23:44:37.101Z,1.63
2018-08-25T23:47:09.505Z,1.70
2018-08-25T23:49:41.925Z,1.70
2018-08-25T23:52:14.541Z,1.47
2018-08-25T23:54:47.189Z,1.47
2018-08-25T23:57:19.574Z,1.47
2018-08-25T23:59:52.006Z,1.60
